Time;durP1;ratioP1;P1;durP2;ratioP2;P2;SDS_P1;SDS_P2;PMS_P1;PMS_P2;Temp;Humidity;BMP_temperature;BMP_pressure;BME280_temperature;BME280_humidity;BME280_pressure;Samples;Min_cycle;Max_cycle;Signal;HPM_P1;HPM_P2
2021/12/08 00:01:19;;;;;;;;;1.00;0.00;;;;;8.35;100.00;99299.22;5015181;28;45249;-77
2021/12/08 00:03:45;;;;;;;;;1.25;0.00;;;;;8.35;100.00;99302.69;5015576;28;45292;-77
2021/12/08 00:06:11;;;;;;;;;1.50;1.00;;;;;8.31;100.00;99303.44;5015483;28;45233;-76
2021/12/08 00:08:37;;;;;;;;;0.00;0.00;;;;;8.30;100.00;99296.50;5015229;28;45985;-76
2021/12/08 00:13:50;;;;;;;;;0.75;0.00;;;;;8.26;100.00;99293.81;5014783;28;45467;-72
2021/12/08 00:16:16;;;;;;;;;1.00;1.00;;;;;8.27;100.00;99280.09;5014439;28;45526;-73
2021/12/08 00:18:47;;;;;;;;;0.50;0.00;;;;;8.21;100.00;99267.88;5015168;28;46099;-75
2021/12/08 00:21:15;;;;;;;;;0.75;0.75;;;;;8.19;100.00;99278.16;5015288;28;45458;-74
2021/12/08 00:23:42;;;;;;;;;0.00;0.00;;;;;8.31;100.00;99295.69;5016474;28;45375;-74
2021/12/08 00:26:09;;;;;;;;;4.50;1.00;;;;;8.33;100.00;99295.72;5018002;28;45661;-75
2021/12/08 00:28:35;;;;;;;;;0.00;0.00;;;;;8.27;100.00;99272.34;5018553;28;45433;-74
2021/12/08 00:31:03;;;;;;;;;0.25;0.25;;;;;8.33;100.00;99288.88;5018018;28;45238;-75
2021/12/08 00:33:31;;;;;;;;;0.75;0.00;;;;;8.31;100.00;99289.69;5018194;28;45331;-74
2021/12/08 00:35:59;;;;;;;;;0.50;0.00;;;;;8.31;100.00;99282.78;5017678;28;45654;-74
2021/12/08 00:38:26;;;;;;;;;0.00;0.00;;;;;8.03;100.00;99248.50;5016764;28;46773;-74
2021/12/08 00:40:52;;;;;;;;;0.25;0.00;;;;;8.22;100.00;99292.84;5017872;28;45282;-75
2021/12/08 00:43:19;;;;;;;;;0.75;0.75;;;;;8.25;100.00;99305.84;5017879;28;45187;-75
2021/12/08 00:45:46;;;;;;;;;1.00;0.00;;;;;8.28;100.00;99311.06;5018888;28;45464;-74
2021/12/08 00:48:12;;;;;;;;;1.00;1.00;;;;;8.28;100.00;99320.50;5000140;28;46533;-74
2021/12/08 00:50:39;;;;;;;;;1.50;0.25;;;;;8.18;100.00;99311.63;5018266;28;45462;-74
2021/12/08 00:53:05;;;;;;;;;0.50;0.50;;;;;8.27;100.00;99323.91;5017997;28;45294;-74
2021/12/08 00:55:31;;;;;;;;;0.00;0.00;;;;;8.28;100.00;99341.16;5018292;28;45562;-74
2021/12/08 00:57:57;;;;;;;;;1.00;0.75;;;;;8.26;100.00;99328.19;5016707;28;46133;-74
2021/12/08 01:00:28;;;;;;;;;2.50;1.00;;;;;8.32;100.00;99340.38;5018100;28;45317;-74
2021/12/08 01:02:54;;;;;;;;;1.25;1.00;;;;;8.34;100.00;99334.47;5018012;28;45360;-73
2021/12/08 01:05:24;;;;;;;;;2.00;0.00;;;;;8.25;100.00;99329.03;5018452;28;45568;-74
2021/12/08 01:07:50;;;;;;;;;0.00;0.00;;;;;8.22;100.00;99318.63;5017235;28;46369;-74
2021/12/08 01:10:24;;;;;;;;;1.00;0.00;;;;;8.21;100.00;99316.88;5018203;28;45327;-74
2021/12/08 01:12:51;;;;;;;;;1.50;0.00;;;;;8.17;100.00;99315.03;5017821;28;45269;-74
2021/12/08 01:15:17;;;;;;;;;0.00;0.00;;;;;8.09;100.00;99326.81;5018486;28;45392;-74
2021/12/08 01:17:43;;;;;;;;;1.00;0.00;;;;;7.92;100.00;99310.81;5017578;28;45489;-74
2021/12/08 01:20:11;;;;;;;;;2.50;0.00;;;;;7.98;100.00;99316.19;5017530;28;45416;-74
2021/12/08 01:22:37;;;;;;;;;0.00;0.00;;;;;7.92;100.00;99318.56;5017711;28;45216;-74
2021/12/08 01:25:04;;;;;;;;;0.00;0.00;;;;;7.83;100.00;99303.69;5017824;28;45238;-74
2021/12/08 01:27:32;;;;;;;;;0.50;0.00;;;;;7.82;100.00;99296.78;5017208;28;45419;-74
2021/12/08 01:29:57;;;;;;;;;4.00;1.00;;;;;7.73;100.00;99276.75;5015975;28;45458;-73
2021/12/08 01:32:23;;;;;;;;;0.00;0.00;;;;;7.75;100.00;99270.81;5017467;28;45436;-73
2021/12/08 01:34:50;;;;;;;;;0.00;0.00;;;;;7.77;100.00;99267.44;5017357;28;45626;-73
2021/12/08 01:37:16;;;;;;;;;0.00;0.00;;;;;7.78;100.00;99266.59;5016788;28;45299;-73
2021/12/08 01:39:41;;;;;;;;;1.00;0.00;;;;;7.77;100.00;99278.63;5017480;28;45277;-76
2021/12/08 01:42:15;;;;;;;;;0.00;0.00;;;;;7.72;100.00;99272.44;5016765;28;45521;-73
2021/12/08 01:47:26;;;;;;;;;0.00;0.00;;;;;7.70;100.00;99300.75;5016953;28;46144;-75
2021/12/08 01:49:52;;;;;;;;;0.00;0.00;;;;;7.66;100.00;99308.31;5016563;28;45797;-78
2021/12/08 01:52:18;;;;;;;;;0.75;0.75;;;;;7.66;100.00;99326.34;5017174;28;45226;-74
2021/12/08 01:54:44;;;;;;;;;0.00;0.00;;;;;7.58;100.00;99333.81;5017826;28;45467;-75
2021/12/08 01:57:09;;;;;;;;;0.50;0.00;;;;;7.66;100.00;99352.97;5016158;28;45987;-75
2021/12/08 01:59:35;;;;;;;;;0.25;0.00;;;;;7.62;100.00;99334.78;5017198;28;45304;-73
2021/12/08 02:02:01;;;;;;;;;2.25;0.00;;;;;7.63;100.00;99344.28;5016877;28;45422;-79
2021/12/08 02:04:26;;;;;;;;;1.00;0.00;;;;;7.65;100.00;99352.94;5017550;28;46042;-79
2021/12/08 02:06:52;;;;;;;;;0.00;0.00;;;;;7.62;100.00;99343.38;5016556;28;45477;-75
2021/12/08 02:09:18;;;;;;;;;2.00;0.00;;;;;7.60;100.00;99342.47;5016081;28;45366;-74
2021/12/08 02:11:46;;;;;;;;;2.75;1.00;;;;;7.66;100.00;99337.50;5017195;28;45491;-80
2021/12/08 02:14:14;;;;;;;;;0.00;0.00;;;;;7.67;100.00;99339.25;5017234;28;45206;-78
2021/12/08 02:16:39;;;;;;;;;0.75;0.75;;;;;7.68;100.00;99377.09;5016799;28;46141;-75
2021/12/08 02:19:05;;;;;;;;;0.75;0.50;;;;;7.65;100.00;99356.38;4998177;28;45371;-75
2021/12/08 02:21:41;;;;;;;;;1.00;0.50;;;;;7.66;100.00;99381.31;5016761;28;45321;-75
2021/12/08 02:24:13;;;;;;;;;2.00;2.00;;;;;7.49;100.00;99367.00;5017096;28;45396;-75
2021/12/08 02:26:42;;;;;;;;;0.50;0.00;;;;;7.53;100.00;99369.72;5016654;28;45404;-74
2021/12/08 02:29:15;;;;;;;;;0.00;0.00;;;;;7.51;100.00;99375.63;5015955;28;45787;-74
2021/12/08 02:31:54;;;;;;;;;0.00;0.00;;;;;7.47;100.00;99399.53;5016793;28;45269;-74
2021/12/08 02:48:02;;;;;;;;;1.25;1.00;;;;;7.33;100.00;99415.38;5015608;28;45681;-74
2021/12/08 02:50:32;;;;;;;;;1.00;1.00;;;;;7.30;100.00;99370.63;5016357;28;45990;-74
2021/12/08 02:52:59;;;;;;;;;1.50;1.00;;;;;7.19;100.00;99370.25;5016236;28;45240;-74
2021/12/08 02:55:26;;;;;;;;;0.00;0.00;;;;;7.26;100.00;99387.69;5016391;28;45499;-75
2021/12/08 02:57:52;;;;;;;;;0.25;0.25;;;;;7.27;100.00;99381.72;5015544;28;46380;-75
2021/12/08 03:00:24;;;;;;;;;1.00;0.00;;;;;7.31;100.00;99385.25;5016208;28;45573;-75
2021/12/08 03:02:51;;;;;;;;;1.25;1.00;;;;;7.28;100.00;99378.31;5016305;28;45407;-78
2021/12/08 03:05:17;;;;;;;;;1.00;1.00;;;;;7.31;100.00;99372.38;4999272;28;45880;-74
2021/12/08 03:07:43;;;;;;;;;0.75;0.75;;;;;7.31;100.00;99380.13;5014799;28;46741;-74
2021/12/08 03:10:13;;;;;;;;;2.25;2.00;;;;;7.25;100.00;99381.63;4998095;28;45285;-74
2021/12/08 03:12:40;;;;;;;;;7.25;3.50;;;;;7.23;100.00;99364.41;5016244;28;45476;-74
2021/12/08 03:15:06;;;;;;;;;9.50;8.75;;;;;7.20;100.00;99354.88;4998356;28;45418;-75
2021/12/08 03:17:34;;;;;;;;;7.75;7.00;;;;;7.13;100.00;99338.34;5015431;28;46826;-73
2021/12/08 03:20:01;;;;;;;;;9.00;8.00;;;;;7.16;100.00;99341.84;5015943;28;45249;-76
2021/12/08 03:22:27;;;;;;;;;10.00;4.75;;;;;7.15;100.00;99353.81;5019631;28;45376;-77
2021/12/08 03:24:53;;;;;;;;;4.75;3.75;;;;;7.19;100.00;99362.53;5016060;28;45503;-76
2021/12/08 03:27:26;;;;;;;;;3.50;3.00;;;;;7.15;100.00;99351.25;4997264;28;45528;-75
2021/12/08 03:30:10;;;;;;;;;1.00;1.00;;;;;7.16;100.00;99362.44;5015681;28;45237;-78
2021/12/08 03:32:38;;;;;;;;;1.25;1.25;;;;;7.10;100.00;99345.94;5015719;28;45344;-75
2021/12/08 03:35:15;;;;;;;;;1.00;0.50;;;;;7.11;100.00;99332.25;5015789;28;45468;-73
2021/12/08 03:37:45;;;;;;;;;1.25;1.25;;;;;7.13;100.00;99328.03;5029970;28;46220;-74
2021/12/08 03:40:18;;;;;;;;;0.25;0.25;;;;;7.16;100.00;99340.13;5015492;28;45270;-73
2021/12/08 03:42:47;;;;;;;;;2.00;1.00;;;;;7.16;100.00;99328.97;5015544;28;45371;-74
2021/12/08 03:45:31;;;;;;;;;1.00;1.00;;;;;7.16;100.00;99327.28;5031343;28;45265;-74
2021/12/08 03:48:02;;;;;;;;;0.50;0.00;;;;;7.20;100.00;99326.56;5006445;28;46292;-73
2021/12/08 03:50:31;;;;;;;;;0.00;0.00;;;;;7.20;100.00;99342.00;4995745;28;45799;-73
2021/12/08 03:52:58;;;;;;;;;1.75;0.00;;;;;7.20;100.00;99347.16;4995540;28;45238;-73
2021/12/08 03:55:24;;;;;;;;;3.00;0.00;;;;;7.21;100.00;99345.44;4978306;28;45561;-74
2021/12/08 03:57:50;;;;;;;;;1.25;0.25;;;;;7.14;100.00;99336.63;5001086;28;47940;-76
2021/12/08 04:00:19;;;;;;;;;3.00;0.00;;;;;7.18;100.00;99342.78;5001261;28;45433;-74
2021/12/08 04:02:45;;;;;;;;;0.00;0.00;;;;;7.16;100.00;99354.72;5019342;28;45354;-77
2021/12/08 04:05:12;;;;;;;;;1.00;0.50;;;;;7.06;100.00;99326.09;5019111;28;45334;-76
2021/12/08 04:07:44;;;;;;;;;1.25;0.00;;;;;7.20;100.00;99339.44;5013839;28;45457;-75
2021/12/08 04:10:19;;;;;;;;;3.25;0.00;;;;;7.17;100.00;99330.72;4998657;28;45411;-76
2021/12/08 04:12:53;;;;;;;;;0.00;0.00;;;;;7.17;100.00;99328.16;4999176;28;45285;-75
2021/12/08 04:15:21;;;;;;;;;0.25;0.00;;;;;7.20;100.00;99338.53;4999082;28;45317;-76
2021/12/08 04:17:50;;;;;;;;;0.00;0.00;;;;;7.25;100.00;99339.59;5004136;28;46337;-76
2021/12/08 04:20:26;;;;;;;;;1.00;0.00;;;;;7.26;100.00;99325.91;5019015;28;45729;-74
2021/12/08 04:22:55;;;;;;;;;1.75;0.00;;;;;7.23;100.00;99341.22;5000737;28;45482;-75
2021/12/08 04:25:26;;;;;;;;;1.00;0.00;;;;;7.24;100.00;99338.69;5001175;28;45451;-78
2021/12/08 04:27:54;;;;;;;;;6.50;0.25;;;;;7.22;100.00;99332.66;5011616;28;46072;-79
2021/12/08 04:30:33;;;;;;;;;2.00;1.00;;;;;7.23;100.00;99336.97;4998645;28;45222;-80
2021/12/08 04:32:59;;;;;;;;;0.00;0.00;;;;;7.20;100.00;99352.31;4998465;28;45749;-81
2021/12/08 04:35:27;;;;;;;;;1.50;0.00;;;;;7.22;100.00;99339.47;4998830;28;45392;-75
2021/12/08 04:37:57;;;;;;;;;0.00;0.00;;;;;7.21;100.00;99335.16;4999056;28;45422;-76
2021/12/08 04:40:38;;;;;;;;;1.50;0.00;;;;;7.19;100.00;99339.34;4997192;28;45641;-76
2021/12/08 04:45:49;;;;;;;;;0.00;0.00;;;;;7.23;100.00;99346.38;4998521;28;45499;-74
2021/12/08 04:53:42;;;;;;;;;2.00;1.00;;;;;7.21;100.00;99345.44;5015816;28;45351;-75
2021/12/08 05:07:15;;;;;;;;;0.00;0.00;;;;;7.18;100.00;99363.38;4998380;28;45277;-76
2021/12/08 05:09:43;;;;;;;;;2.00;1.00;;;;;7.17;100.00;99365.06;5012635;28;45710;-76
2021/12/08 05:12:13;;;;;;;;;0.00;0.00;;;;;7.15;100.00;99369.28;4997843;28;45366;-75
2021/12/08 05:15:00;;;;;;;;;1.00;0.00;;;;;7.16;100.00;99375.31;5009592;28;45463;-75
2021/12/08 05:17:31;;;;;;;;;0.50;0.00;;;;;7.11;100.00;99357.13;5018189;28;45530;-75
2021/12/08 05:20:03;;;;;;;;;1.00;1.00;;;;;7.09;100.00;99363.91;5017589;28;46170;-74
2021/12/08 05:22:39;;;;;;;;;1.00;1.00;;;;;7.12;100.00;99364.91;5017881;28;45813;-74
2021/12/08 05:25:09;;;;;;;;;1.00;0.00;;;;;7.15;100.00;99376.13;5008581;28;45182;-74
2021/12/08 05:27:40;;;;;;;;;0.00;0.00;;;;;7.17;100.00;99385.66;5017970;28;45531;-75
2021/12/08 05:30:14;;;;;;;;;1.00;0.00;;;;;7.19;100.00;99388.25;5017235;28;46170;-74
2021/12/08 05:32:39;;;;;;;;;3.25;1.00;;;;;7.21;100.00;99387.53;5017663;28;45359;-75
2021/12/08 05:35:09;;;;;;;;;0.00;0.00;;;;;7.15;100.00;99365.84;5002194;28;45186;-74
2021/12/08 05:37:35;;;;;;;;;1.00;0.00;;;;;7.28;100.00;99386.03;4998088;28;45297;-74
2021/12/08 05:40:05;;;;;;;;;3.25;0.25;;;;;7.25;100.00;99394.50;4997259;28;45392;-75
2021/12/08 05:42:35;;;;;;;;;4.75;1.00;;;;;7.28;100.00;99396.34;4997576;28;45266;-74
2021/12/08 05:45:06;;;;;;;;;0.00;0.00;;;;;7.12;100.00;99370.03;5010751;28;45343;-75
2021/12/08 05:47:32;;;;;;;;;0.00;0.00;;;;;7.27;100.00;99387.72;5017777;28;45335;-75
2021/12/08 05:49:59;;;;;;;;;2.50;2.00;;;;;7.25;100.00;99401.38;5016539;28;45432;-74
2021/12/08 05:52:25;;;;;;;;;1.00;0.00;;;;;7.19;100.00;99419.16;5017107;28;45821;-74
2021/12/08 05:54:52;;;;;;;;;1.75;1.75;;;;;7.18;100.00;99409.72;5004559;28;45412;-73
2021/12/08 05:57:29;;;;;;;;;1.75;1.00;;;;;7.16;100.00;99394.19;4979872;28;45412;-73
2021/12/08 05:59:56;;;;;;;;;1.75;0.50;;;;;7.12;100.00;99398.34;4996786;28;45488;-74
2021/12/08 06:02:34;;;;;;;;;1.25;0.00;;;;;7.04;100.00;99386.91;4997261;28;45647;-74
2021/12/08 06:05:02;;;;;;;;;0.00;0.00;;;;;7.08;100.00;99400.78;5025099;28;45511;-74
2021/12/08 06:07:28;;;;;;;;;0.50;0.50;;;;;7.07;100.00;99407.59;5017377;28;45408;-74
2021/12/08 06:10:02;;;;;;;;;0.00;0.00;;;;;7.06;100.00;99399.81;5016144;28;45939;-74
2021/12/08 06:12:28;;;;;;;;;1.25;0.00;;;;;7.02;100.00;99391.13;5016006;28;45480;-75
2021/12/08 06:14:56;;;;;;;;;2.00;0.00;;;;;6.94;100.00;99385.69;5017307;28;45328;-78
2021/12/08 06:17:26;;;;;;;;;0.00;0.00;;;;;6.97;100.00;99395.22;5017906;28;45396;-75
2021/12/08 06:19:53;;;;;;;;;1.00;0.00;;;;;6.83;100.00;99387.00;5016433;28;46496;-78
2021/12/08 06:22:21;;;;;;;;;2.75;1.75;;;;;6.74;100.00;99372.13;4997663;28;46052;-78
2021/12/08 06:24:48;;;;;;;;;0.75;0.75;;;;;6.78;100.00;99386.84;5016741;28;45222;-77
2021/12/08 06:27:14;;;;;;;;;1.00;1.00;;;;;6.74;100.00;99384.09;5017358;28;45486;-74
2021/12/08 06:29:42;;;;;;;;;3.00;0.75;;;;;6.72;100.00;99389.19;4997719;28;47878;-74
2021/12/08 06:32:10;;;;;;;;;1.50;0.00;;;;;6.74;100.00;99404.66;5016351;28;45834;-73
2021/12/08 06:34:39;;;;;;;;;0.25;0.00;;;;;6.68;100.00;99412.16;5016326;28;45261;-74
2021/12/08 06:37:13;;;;;;;;;2.50;0.00;;;;;6.68;100.00;99423.31;5015841;28;45480;-74
2021/12/08 06:40:11;;;;;;;;;2.75;2.00;;;;;6.59;100.00;99422.97;5016074;28;46086;-76
2021/12/08 06:42:44;;;;;;;;;1.00;1.00;;;;;6.58;100.00;99426.38;5009004;28;45854;-76
2021/12/08 06:45:22;;;;;;;;;1.00;1.00;;;;;6.47;100.00;99420.81;5016064;28;45399;-74
2021/12/08 06:47:50;;;;;;;;;2.75;1.00;;;;;6.43;100.00;99406.94;5016448;28;46164;-75
2021/12/08 06:50:29;;;;;;;;;0.50;0.00;;;;;6.42;100.00;99404.31;5016455;28;46491;-74
2021/12/08 06:52:57;;;;;;;;;2.00;0.00;;;;;6.43;100.00;99417.22;4982337;28;45404;-76
2021/12/08 06:55:28;;;;;;;;;1.75;1.00;;;;;6.44;100.00;99415.56;5016507;28;45871;-76
2021/12/08 06:58:04;;;;;;;;;1.00;0.00;;;;;6.47;100.00;99415.69;5016155;28;45245;-76
2021/12/08 07:01:39;;;;;;;;;1.00;0.25;;;;;6.44;100.00;99405.28;5014257;28;46035;-75
2021/12/08 07:06:59;;;;;;;;;1.75;0.75;;;;;6.33;100.00;99403.16;5015352;28;46478;-79
2021/12/08 07:09:57;;;;;;;;;0.00;0.00;;;;;6.34;100.00;99432.31;5016465;28;45321;-75
2021/12/08 07:12:33;;;;;;;;;1.25;1.00;;;;;6.29;100.00;99424.41;5015258;28;45646;-79
2021/12/08 07:15:14;;;;;;;;;1.00;1.00;;;;;6.22;100.00;99407.00;5016550;28;45779;-78
2021/12/08 07:17:43;;;;;;;;;2.00;0.00;;;;;6.24;100.00;99427.63;5016112;28;45286;-80
2021/12/08 07:20:17;;;;;;;;;1.25;0.75;;;;;6.23;100.00;99441.28;5016122;28;45457;-76
2021/12/08 07:22:53;;;;;;;;;0.75;0.75;;;;;6.19;100.00;99441.19;5014014;28;46056;-82
2021/12/08 07:25:23;;;;;;;;;2.00;1.00;;;;;6.20;100.00;99421.47;5004073;28;45430;-80
2021/12/08 07:27:50;;;;;;;;;3.25;1.00;;;;;6.21;100.00;99436.09;4998052;28;45277;-81
2021/12/08 07:30:29;;;;;;;;;0.00;0.00;;;;;6.21;100.00;99430.94;5016907;28;45500;-79
2021/12/08 07:32:55;;;;;;;;;1.25;0.75;;;;;6.23;100.00;99437.03;5017300;28;46161;-76
2021/12/08 07:35:36;;;;;;;;;0.00;0.00;;;;;6.26;100.00;99450.00;5019202;28;45910;-77
2021/12/08 07:38:04;;;;;;;;;1.00;1.00;;;;;6.20;100.00;99436.91;5019453;28;45445;-76
2021/12/08 07:40:41;;;;;;;;;0.50;0.25;;;;;6.26;100.00;99447.44;5018576;28;45315;-73
2021/12/08 07:43:13;;;;;;;;;1.75;0.00;;;;;6.33;100.00;99476.81;5000517;28;47919;-75
2021/12/08 07:45:48;;;;;;;;;2.00;1.00;;;;;6.35;100.00;99478.66;5019254;28;45404;-74
2021/12/08 07:48:22;;;;;;;;;0.00;0.00;;;;;6.37;100.00;99476.13;5019784;28;45528;-77
2021/12/08 07:50:54;;;;;;;;;1.00;1.00;;;;;6.39;100.00;99481.31;5018012;28;45412;-77
2021/12/08 07:53:23;;;;;;;;;1.75;1.75;;;;;6.43;100.00;99483.22;5018600;28;46136;-76
2021/12/08 07:55:54;;;;;;;;;2.50;2.50;;;;;6.48;100.00;99491.97;5017830;28;45816;-76
2021/12/08 07:58:21;;;;;;;;;1.00;1.00;;;;;6.44;100.00;99478.13;5012607;28;45537;-76
2021/12/08 08:00:54;;;;;;;;;2.25;1.00;;;;;6.54;100.00;99481.94;4999693;28;45619;-75
2021/12/08 08:03:22;;;;;;;;;1.00;0.00;;;;;6.60;100.00;99477.03;5001270;28;45380;-76
2021/12/08 08:05:50;;;;;;;;;0.25;0.25;;;;;6.61;100.00;99470.22;5018230;28;45351;-76
2021/12/08 08:08:18;;;;;;;;;1.00;1.00;;;;;6.63;100.00;99466.00;5018961;28;45261;-76
2021/12/08 08:10:52;;;;;;;;;1.25;0.75;;;;;6.65;100.00;99470.38;5019022;28;45238;-75
2021/12/08 08:13:22;;;;;;;;;0.00;0.00;;;;;6.58;100.00;99470.97;5018500;28;45360;-77
2021/12/08 08:15:53;;;;;;;;;2.00;0.00;;;;;6.55;100.00;99476.00;5018149;28;45290;-76
2021/12/08 08:18:24;;;;;;;;;4.00;0.25;;;;;6.50;100.00;99468.09;5000843;28;45364;-73
2021/12/08 08:20:54;;;;;;;;;2.50;0.50;;;;;6.59;100.00;99469.25;5001467;28;45269;-74
2021/12/08 08:23:23;;;;;;;;;1.25;1.00;;;;;6.59;100.00;99467.56;5017984;28;46174;-77
2021/12/08 08:25:51;;;;;;;;;2.75;1.50;;;;;6.57;100.00;99458.94;5018014;28;45854;-76
2021/12/08 08:28:17;;;;;;;;;1.25;1.00;;;;;6.64;100.00;99481.47;5000597;28;45296;-76
2021/12/08 08:30:48;;;;;;;;;3.00;1.00;;;;;6.59;100.00;99490.69;5018953;28;45395;-77
2021/12/08 08:33:15;;;;;;;;;2.00;1.00;;;;;6.52;100.00;99499.00;5018506;28;45406;-75
2021/12/08 08:35:44;;;;;;;;;2.75;1.00;;;;;6.52;100.00;99503.28;5018355;28;45295;-76
2021/12/08 08:38:15;;;;;;;;;1.00;1.00;;;;;6.54;100.00;99510.22;5018034;28;45532;-77
2021/12/08 08:40:52;;;;;;;;;3.50;1.25;;;;;6.53;100.00;99505.91;5033928;28;45698;-77
2021/12/08 08:43:18;;;;;;;;;1.00;1.00;;;;;6.56;100.00;99505.13;5017751;28;46183;-79
2021/12/08 08:45:55;;;;;;;;;3.25;2.00;;;;;6.58;100.00;99511.22;5018019;28;45294;-77
2021/12/08 08:48:34;;;;;;;;;1.00;1.00;;;;;6.61;100.00;99517.34;5018461;28;45300;-76
2021/12/08 08:51:19;;;;;;;;;5.75;2.00;;;;;6.61;100.00;99517.34;5033094;28;45312;-76
2021/12/08 08:53:51;;;;;;;;;1.25;1.00;;;;;6.53;100.00;99502.47;5014845;28;45528;-76
2021/12/08 08:56:24;;;;;;;;;1.50;1.25;;;;;6.55;100.00;99504.28;5017279;28;45886;-75
2021/12/08 08:58:55;;;;;;;;;0.50;0.00;;;;;6.64;100.00;99520.06;5018089;28;45576;-76
2021/12/08 09:01:36;;;;;;;;;0.75;0.25;;;;;6.63;100.00;99518.31;5018166;28;45339;-76
2021/12/08 09:04:13;;;;;;;;;1.25;1.25;;;;;6.59;100.00;99515.56;5017547;28;45356;-76
2021/12/08 09:06:43;;;;;;;;;1.00;1.00;;;;;6.52;100.00;99517.00;5017724;28;45320;-76
2021/12/08 09:09:16;;;;;;;;;1.00;1.00;;;;;6.52;100.00;99527.28;5017261;28;45197;-75
2021/12/08 09:11:47;;;;;;;;;1.75;1.00;;;;;6.53;100.00;99533.31;5018226;28;45303;-75
2021/12/08 09:14:38;;;;;;;;;2.50;0.00;;;;;6.60;100.00;99530.16;5017582;28;45393;-75
2021/12/08 09:17:24;;;;;;;;;2.75;2.00;;;;;6.59;100.00;99534.41;5017318;28;45387;-75
2021/12/08 09:20:22;;;;;;;;;2.75;1.75;;;;;6.58;100.00;99535.25;5017437;28;45286;-76
2021/12/08 09:22:57;;;;;;;;;1.00;0.25;;;;;6.56;100.00;99536.88;4999475;28;45646;-75
2021/12/08 09:25:31;;;;;;;;;2.25;1.00;;;;;6.53;100.00;99517.91;5017323;28;46152;-76
2021/12/08 09:28:06;;;;;;;;;1.75;1.00;;;;;6.57;100.00;99524.88;5016658;28;45954;-75
2021/12/08 09:30:46;;;;;;;;;3.00;1.00;;;;;6.50;100.00;99527.22;5017368;28;45513;-77
2021/12/08 09:33:18;;;;;;;;;2.75;2.00;;;;;6.58;100.00;99536.94;5017829;28;45398;-77
2021/12/08 09:35:53;;;;;;;;;1.50;1.50;;;;;6.49;100.00;99527.16;4999652;28;45791;-75
2021/12/08 09:38:25;;;;;;;;;1.00;1.00;;;;;6.62;100.00;99552.56;5017070;28;45685;-75
2021/12/08 09:41:02;;;;;;;;;1.25;1.25;;;;;6.69;100.00;99558.81;5017146;28;45361;-76
2021/12/08 09:43:40;;;;;;;;;2.00;1.00;;;;;6.74;100.00;99553.84;5017600;28;45531;-75
2021/12/08 09:46:27;;;;;;;;;2.50;1.50;;;;;6.75;100.00;99537.63;5016526;28;45628;-75
2021/12/08 09:48:56;;;;;;;;;0.00;0.00;;;;;6.75;100.00;99538.47;5016823;28;45182;-75
2021/12/08 09:51:24;;;;;;;;;2.00;2.00;;;;;6.82;100.00;99539.59;5017207;28;45961;-75
2021/12/08 09:53:50;;;;;;;;;1.00;1.00;;;;;6.84;100.00;99544.81;5016678;28;45348;-75
2021/12/08 09:56:16;;;;;;;;;0.00;0.00;;;;;6.81;100.00;99545.56;5015711;28;45818;-75
2021/12/08 09:58:43;;;;;;;;;1.00;1.00;;;;;6.79;100.00;99536.94;4999224;28;45259;-75
2021/12/08 10:01:15;;;;;;;;;1.00;1.00;;;;;6.88;100.00;99531.25;5016622;28;45352;-76
2021/12/08 10:03:41;;;;;;;;;0.00;0.00;;;;;6.94;100.00;99540.06;5015305;28;45244;-75
2021/12/08 10:06:08;;;;;;;;;1.00;0.25;;;;;6.95;100.00;99522.97;5016229;28;45290;-75
2021/12/08 10:08:34;;;;;;;;;2.25;1.25;;;;;6.98;100.00;99530.78;5016413;28;45704;-76
2021/12/08 10:11:00;;;;;;;;;3.00;1.00;;;;;7.01;100.00;99530.03;5016377;28;45345;-76
2021/12/08 10:13:26;;;;;;;;;1.50;1.00;;;;;7.04;100.00;99527.56;5016510;28;45590;-76
2021/12/08 10:15:51;;;;;;;;;1.00;1.00;;;;;7.06;100.00;99520.78;5016231;28;45995;-76
2021/12/08 10:18:17;;;;;;;;;1.00;1.00;;;;;7.11;100.00;99527.00;5016455;28;45396;-76
2021/12/08 10:20:49;;;;;;;;;1.50;0.25;;;;;7.15;100.00;99527.97;5015720;28;45344;-76
2021/12/08 10:23:32;;;;;;;;;4.00;1.00;;;;;7.06;100.00;99519.09;5017350;28;45515;-77
2021/12/08 10:26:07;;;;;;;;;0.50;0.50;;;;;7.10;100.00;99520.94;5015857;28;46187;-76
2021/12/08 10:28:40;;;;;;;;;3.00;1.00;;;;;7.16;100.00;99530.59;4981935;28;45739;-77
2021/12/08 10:31:28;;;;;;;;;2.00;1.00;;;;;7.18;100.00;99538.41;4997923;28;45412;-77
2021/12/08 10:34:09;;;;;;;;;1.75;1.00;;;;;7.23;100.00;99531.72;5016368;28;45327;-74
2021/12/08 10:39:33;;;;;;;;;2.00;2.00;;;;;7.20;100.00;99534.16;5014515;28;45994;-77
2021/12/08 10:42:13;;;;;;;;;2.00;0.75;;;;;7.19;100.00;99515.28;5004123;28;45274;-75
2021/12/08 10:47:28;;;;;;;;;1.00;0.00;;;;;7.16;100.00;99520.31;5015743;28;45388;-73
2021/12/08 10:55:39;;;;;;;;;1.75;0.75;;;;;7.12;100.00;99514.19;5012692;28;45795;-75
2021/12/08 10:58:06;;;;;;;;;0.25;0.00;;;;;7.19;100.00;99516.97;5015636;28;46199;-76
2021/12/08 11:00:37;;;;;;;;;2.00;2.00;;;;;7.21;100.00;99526.53;5016241;28;45426;-75
2021/12/08 11:03:12;;;;;;;;;2.00;1.75;;;;;7.29;100.00;99526.78;4997694;28;45410;-75
2021/12/08 11:05:57;;;;;;;;;0.50;0.50;;;;;7.32;100.00;99526.91;5016130;28;45556;-77
2021/12/08 11:08:31;;;;;;;;;2.00;0.25;;;;;7.37;100.00;99512.53;5015058;28;46135;-76
2021/12/08 11:11:02;;;;;;;;;1.00;0.25;;;;;7.41;100.00;99529.81;5015475;28;45830;-76
2021/12/08 11:13:33;;;;;;;;;1.50;1.50;;;;;7.40;100.00;99527.19;5015852;28;45323;-76
2021/12/08 11:16:34;;;;;;;;;2.00;1.00;;;;;7.38;100.00;99534.88;5015558;28;45378;-75
2021/12/08 11:19:11;;;;;;;;;0.75;0.75;;;;;7.32;100.00;99526.03;5015152;28;45551;-77
2021/12/08 11:21:40;;;;;;;;;1.50;0.00;;;;;7.31;100.00;99520.00;5015874;28;45859;-75
2021/12/08 11:24:32;;;;;;;;;1.00;1.00;;;;;7.42;100.00;99523.84;4997597;28;45455;-76
2021/12/08 11:27:01;;;;;;;;;3.00;2.00;;;;;7.33;100.00;99505.50;5015643;28;45333;-75
2021/12/08 11:29:29;;;;;;;;;2.25;2.00;;;;;7.49;100.00;99531.81;5015580;28;46099;-74
2021/12/08 11:32:01;;;;;;;;;1.00;1.00;;;;;7.51;100.00;99532.72;5014913;28;45451;-75
2021/12/08 11:34:31;;;;;;;;;0.25;0.25;;;;;7.52;100.00;99534.47;5015345;28;45365;-75
2021/12/08 11:37:19;;;;;;;;;2.00;1.00;;;;;7.51;100.00;99532.72;5015468;28;45353;-76
2021/12/08 11:39:55;;;;;;;;;1.75;0.50;;;;;7.52;100.00;99521.59;5014770;28;46326;-76
2021/12/08 11:42:31;;;;;;;;;0.00;0.00;;;;;7.55;100.00;99519.16;4997642;28;45469;-75
2021/12/08 11:44:59;;;;;;;;;1.00;1.00;;;;;7.59;100.00;99521.88;5015450;28;45297;-75
2021/12/08 11:47:33;;;;;;;;;2.50;0.50;;;;;7.62;100.00;99518.53;5015717;28;45341;-75
2021/12/08 11:50:08;;;;;;;;;0.25;0.00;;;;;7.61;100.00;99516.81;5015104;28;45912;-75
2021/12/08 11:52:37;;;;;;;;;0.00;0.00;;;;;7.59;100.00;99513.28;5015310;28;45349;-74
2021/12/08 11:55:13;;;;;;;;;2.25;2.00;;;;;7.70;100.00;99522.28;5014941;28;45507;-74
2021/12/08 11:57:44;;;;;;;;;1.25;1.00;;;;;7.73;100.00;99516.34;4997662;28;45613;-74
2021/12/08 12:00:22;;;;;;;;;2.00;0.50;;;;;7.82;100.00;99520.97;5014935;28;45284;-74
2021/12/08 12:02:58;;;;;;;;;0.00;0.00;;;;;7.95;100.00;99540.28;5014912;28;45416;-75
2021/12/08 12:05:31;;;;;;;;;1.00;1.00;;;;;7.95;100.00;99546.31;4997415;28;45424;-75
2021/12/08 12:07:57;;;;;;;;;0.50;0.50;;;;;7.96;100.00;99522.28;4997203;28;45625;-75
2021/12/08 12:10:30;;;;;;;;;1.00;1.00;;;;;7.93;100.00;99526.47;5014927;28;45570;-75
2021/12/08 12:12:56;;;;;;;;;0.00;0.00;;;;;7.99;100.00;99534.44;5014897;28;45335;-74
2021/12/08 12:15:23;;;;;;;;;2.50;0.00;;;;;7.99;100.00;99532.72;5015065;28;45293;-74
2021/12/08 12:17:49;;;;;;;;;0.50;0.50;;;;;7.95;100.00;99527.41;5015013;28;45416;-73
2021/12/08 12:20:41;;;;;;;;;2.75;0.25;;;;;8.01;100.00;99548.22;5017475;28;45309;-73
2021/12/08 12:23:51;;;;;;;;;1.00;1.00;;;;;8.03;100.00;99551.75;5006584;28;45796;-75
2021/12/08 12:26:26;;;;;;;;;1.00;1.00;;;;;8.06;100.00;99557.88;5018413;28;45178;-73
2021/12/08 12:29:31;;;;;;;;;0.00;0.00;;;;;8.09;100.00;99570.00;5018311;28;45268;-73
2021/12/08 12:32:09;;;;;;;;;0.00;0.00;;;;;8.14;100.00;99558.13;4999790;28;46810;-74
2021/12/08 12:34:39;;;;;;;;;0.75;0.00;;;;;8.23;100.00;99560.16;5018077;28;45666;-74
2021/12/08 12:37:30;;;;;;;;;1.00;0.50;;;;;8.35;100.00;99564.84;5018065;28;45484;-75
2021/12/08 12:39:58;;;;;;;;;1.25;0.00;;;;;8.42;100.00;99561.66;5017814;28;45442;-75
2021/12/08 12:42:26;;;;;;;;;0.00;0.00;;;;;8.49;100.00;99549.84;5017998;28;45284;-75
2021/12/08 12:44:57;;;;;;;;;0.50;0.50;;;;;8.58;100.00;99567.34;5017698;28;45345;-74
2021/12/08 12:47:26;;;;;;;;;1.00;0.00;;;;;8.60;100.00;99560.53;5018561;28;45414;-76